sensor_id;sensor_type;location;lat;lon;timestamp;temperature;humidity
19966;DHT22;10144;50.874;4.762;2022-08-19T00:05:14;21.00;99.90
19966;DHT22;10144;50.874;4.762;2022-08-19T00:14:26;21.10;99.90
19966;DHT22;10144;50.874;4.762;2022-08-19T00:20:18;21.10;99.90
19966;DHT22;10144;50.874;4.762;2022-08-19T00:26:06;21.10;99.90
19966;DHT22;10144;50.874;4.762;2022-08-19T00:31:55;21.10;99.90
19966;DHT22;10144;50.874;4.762;2022-08-19T00:37:43;21.10;99.90
19966;DHT22;10144;50.874;4.762;2022-08-19T00:43:29;21.00;99.90
19966;DHT22;10144;50.874;4.762;2022-08-19T00:45:55;21.00;99.90
19966;DHT22;10144;50.874;4.762;2022-08-19T00:48:27;20.90;99.90
19966;DHT22;10144;50.874;4.762;2022-08-19T00:50:55;20.90;99.90
19966;DHT22;10144;50.874;4.762;2022-08-19T00:53:23;20.80;99.90
19966;DHT22;10144;50.874;4.762;2022-08-19T00:55:53;20.80;99.90
19966;DHT22;10144;50.874;4.762;2022-08-19T00:58:23;20.80;99.90
19966;DHT22;10144;50.874;4.762;2022-08-19T01:00:58;20.80;99.90
19966;DHT22;10144;50.874;4.762;2022-08-19T01:03:26;20.80;99.90
19966;DHT22;10144;50.874;4.762;2022-08-19T01:05:52;20.80;99.90
19966;DHT22;10144;50.874;4.762;2022-08-19T01:08:20;20.80;99.90
19966;DHT22;10144;50.874;4.762;2022-08-19T01:10:50;20.70;99.90
19966;DHT22;10144;50.874;4.762;2022-08-19T01:13:27;20.70;99.90
19966;DHT22;10144;50.874;4.762;2022-08-19T01:16:10;20.70;99.90
19966;DHT22;10144;50.874;4.762;2022-08-19T01:18:41;20.70;99.90
19966;DHT22;10144;50.874;4.762;2022-08-19T01:21:15;20.70;99.90
19966;DHT22;10144;50.874;4.762;2022-08-19T01:23:43;20.60;99.90
19966;DHT22;10144;50.874;4.762;2022-08-19T01:26:16;20.60;99.90
19966;DHT22;10144;50.874;4.762;2022-08-19T01:28:47;20.50;99.90
19966;DHT22;10144;50.874;4.762;2022-08-19T01:31:19;20.40;99.90
19966;DHT22;10144;50.874;4.762;2022-08-19T01:33:51;20.40;99.90
19966;DHT22;10144;50.874;4.762;2022-08-19T01:36:32;20.40;99.90
19966;DHT22;10144;50.874;4.762;2022-08-19T01:39:00;20.40;99.90
19966;DHT22;10144;50.874;4.762;2022-08-19T01:41:28;20.50;99.90
19966;DHT22;10144;50.874;4.762;2022-08-19T01:43:55;20.50;99.90
19966;DHT22;10144;50.874;4.762;2022-08-19T01:49:50;20.40;99.90
19966;DHT22;10144;50.874;4.762;2022-08-19T01:55:41;20.50;99.90
19966;DHT22;10144;50.874;4.762;2022-08-19T02:01:30;20.40;99.90
19966;DHT22;10144;50.874;4.762;2022-08-19T02:07:20;20.40;99.90
19966;DHT22;10144;50.874;4.762;2022-08-19T02:13:12;20.30;99.90
19966;DHT22;10144;50.874;4.762;2022-08-19T02:19:01;20.40;99.90
19966;DHT22;10144;50.874;4.762;2022-08-19T02:24:49;20.30;99.90
19966;DHT22;10144;50.874;4.762;2022-08-19T02:30:38;20.30;99.90
19966;DHT22;10144;50.874;4.762;2022-08-19T02:33:13;20.30;99.90
19966;DHT22;10144;50.874;4.762;2022-08-19T02:35:47;20.30;99.90
19966;DHT22;10144;50.874;4.762;2022-08-19T02:38:15;20.30;99.90
19966;DHT22;10144;50.874;4.762;2022-08-19T02:43:21;20.20;99.90
19966;DHT22;10144;50.874;4.762;2022-08-19T02:45:50;20.10;99.90
19966;DHT22;10144;50.874;4.762;2022-08-19T02:48:18;20.10;99.90
19966;DHT22;10144;50.874;4.762;2022-08-19T02:50:53;20.10;99.90
19966;DHT22;10144;50.874;4.762;2022-08-19T02:53:26;20.10;99.90
19966;DHT22;10144;50.874;4.762;2022-08-19T02:55:57;20.00;99.90
19966;DHT22;10144;50.874;4.762;2022-08-19T02:58:24;20.00;99.90
19966;DHT22;10144;50.874;4.762;2022-08-19T03:00:55;20.00;99.90
19966;DHT22;10144;50.874;4.762;2022-08-19T03:03:27;20.00;99.90
19966;DHT22;10144;50.874;4.762;2022-08-19T03:06:06;20.00;99.90
19966;DHT22;10144;50.874;4.762;2022-08-19T03:08:35;19.90;99.90
19966;DHT22;10144;50.874;4.762;2022-08-19T03:11:03;19.80;99.90
19966;DHT22;10144;50.874;4.762;2022-08-19T03:16:51;19.70;99.90
19966;DHT22;10144;50.874;4.762;2022-08-19T03:19:27;19.70;99.90
19966;DHT22;10144;50.874;4.762;2022-08-19T03:25:52;19.70;99.90
19966;DHT22;10144;50.874;4.762;2022-08-19T03:31:42;19.50;99.90
19966;DHT22;10144;50.874;4.762;2022-08-19T03:37:31;19.50;99.90
19966;DHT22;10144;50.874;4.762;2022-08-19T03:43:20;19.50;99.90
19966;DHT22;10144;50.874;4.762;2022-08-19T03:49:08;19.40;99.90
19966;DHT22;10144;50.874;4.762;2022-08-19T03:51:39;19.50;99.90
19966;DHT22;10144;50.874;4.762;2022-08-19T03:54:07;19.50;99.90
19966;DHT22;10144;50.874;4.762;2022-08-19T03:56:44;19.40;99.90
19966;DHT22;10144;50.874;4.762;2022-08-19T03:59:15;19.50;99.90
19966;DHT22;10144;50.874;4.762;2022-08-19T04:02:13;19.50;99.90
19966;DHT22;10144;50.874;4.762;2022-08-19T04:08:01;19.40;99.90
19966;DHT22;10144;50.874;4.762;2022-08-19T04:20:46;19.00;99.90
19966;DHT22;10144;50.874;4.762;2022-08-19T04:23:13;18.90;99.90
19966;DHT22;10144;50.874;4.762;2022-08-19T04:25:42;18.80;99.90
19966;DHT22;10144;50.874;4.762;2022-08-19T04:28:11;18.80;99.90
19966;DHT22;10144;50.874;4.762;2022-08-19T04:34:00;18.80;99.90
19966;DHT22;10144;50.874;4.762;2022-08-19T04:39:50;18.70;99.90
19966;DHT22;10144;50.874;4.762;2022-08-19T04:45:56;18.70;99.90
19966;DHT22;10144;50.874;4.762;2022-08-19T04:51:46;18.70;99.90
19966;DHT22;10144;50.874;4.762;2022-08-19T04:57:35;18.60;99.90
19966;DHT22;10144;50.874;4.762;2022-08-19T05:03:28;18.70;99.90
19966;DHT22;10144;50.874;4.762;2022-08-19T05:09:19;18.60;99.90
19966;DHT22;10144;50.874;4.762;2022-08-19T05:15:09;18.60;99.90
19966;DHT22;10144;50.874;4.762;2022-08-19T05:20:57;18.60;99.90
19966;DHT22;10144;50.874;4.762;2022-08-19T05:27:06;18.60;99.90
19966;DHT22;10144;50.874;4.762;2022-08-19T05:32:58;18.60;99.90
19966;DHT22;10144;50.874;4.762;2022-08-19T05:35:44;18.60;99.90
19966;DHT22;10144;50.874;4.762;2022-08-19T05:38:13;18.60;99.90
19966;DHT22;10144;50.874;4.762;2022-08-19T05:40:39;18.70;99.90
19966;DHT22;10144;50.874;4.762;2022-08-19T05:43:07;18.80;99.90
19966;DHT22;10144;50.874;4.762;2022-08-19T05:45:37;18.90;99.90
19966;DHT22;10144;50.874;4.762;2022-08-19T05:48:04;19.00;99.90
19966;DHT22;10144;50.874;4.762;2022-08-19T05:50:30;19.20;99.90
19966;DHT22;10144;50.874;4.762;2022-08-19T05:52:59;19.30;99.90
19966;DHT22;10144;50.874;4.762;2022-08-19T05:55:24;19.40;99.90
19966;DHT22;10144;50.874;4.762;2022-08-19T06:01:17;19.50;99.90
19966;DHT22;10144;50.874;4.762;2022-08-19T06:07:23;19.60;99.90
19966;DHT22;10144;50.874;4.762;2022-08-19T06:09:51;19.60;99.90
19966;DHT22;10144;50.874;4.762;2022-08-19T06:12:32;19.70;99.90
19966;DHT22;10144;50.874;4.762;2022-08-19T06:15:06;19.90;99.90
19966;DHT22;10144;50.874;4.762;2022-08-19T06:17:32;20.10;99.90
19966;DHT22;10144;50.874;4.762;2022-08-19T06:20:03;20.20;99.90
19966;DHT22;10144;50.874;4.762;2022-08-19T06:22:30;20.30;99.90
19966;DHT22;10144;50.874;4.762;2022-08-19T06:24:56;20.50;99.90
19966;DHT22;10144;50.874;4.762;2022-08-19T06:27:30;20.80;99.90
19966;DHT22;10144;50.874;4.762;2022-08-19T06:30:14;21.20;99.90
19966;DHT22;10144;50.874;4.762;2022-08-19T06:32:48;21.40;99.90
19966;DHT22;10144;50.874;4.762;2022-08-19T06:35:18;21.30;99.90
19966;DHT22;10144;50.874;4.762;2022-08-19T06:37:46;21.40;99.90
19966;DHT22;10144;50.874;4.762;2022-08-19T06:43:44;22.10;99.90
19966;DHT22;10144;50.874;4.762;2022-08-19T06:46:12;22.20;99.90
19966;DHT22;10144;50.874;4.762;2022-08-19T06:48:39;22.40;99.90
19966;DHT22;10144;50.874;4.762;2022-08-19T06:51:05;22.70;99.90
19966;DHT22;10144;50.874;4.762;2022-08-19T06:53:32;22.80;99.90
19966;DHT22;10144;50.874;4.762;2022-08-19T06:55:58;22.90;99.90
19966;DHT22;10144;50.874;4.762;2022-08-19T06:58:30;23.20;99.90
19966;DHT22;10144;50.874;4.762;2022-08-19T07:01:02;23.40;99.90
19966;DHT22;10144;50.874;4.762;2022-08-19T07:03:33;23.60;99.90
19966;DHT22;10144;50.874;4.762;2022-08-19T07:06:15;23.80;99.90
19966;DHT22;10144;50.874;4.762;2022-08-19T07:08:45;24.10;99.90
19966;DHT22;10144;50.874;4.762;2022-08-19T07:11:32;24.10;99.90
19966;DHT22;10144;50.874;4.762;2022-08-19T07:14:00;24.20;99.90
19966;DHT22;10144;50.874;4.762;2022-08-19T07:16:30;24.30;99.90
19966;DHT22;10144;50.874;4.762;2022-08-19T07:18:58;24.40;99.90
19966;DHT22;10144;50.874;4.762;2022-08-19T07:21:28;24.60;99.90
19966;DHT22;10144;50.874;4.762;2022-08-19T07:23:59;25.00;99.90
19966;DHT22;10144;50.874;4.762;2022-08-19T07:26:28;25.20;99.90
19966;DHT22;10144;50.874;4.762;2022-08-19T07:29:03;25.20;99.90
19966;DHT22;10144;50.874;4.762;2022-08-19T07:31:45;25.30;99.90
19966;DHT22;10144;50.874;4.762;2022-08-19T07:34:23;25.80;99.90
19966;DHT22;10144;50.874;4.762;2022-08-19T07:36:55;26.10;99.90
19966;DHT22;10144;50.874;4.762;2022-08-19T07:39:26;26.30;99.90
19966;DHT22;10144;50.874;4.762;2022-08-19T07:41:56;26.50;99.90
19966;DHT22;10144;50.874;4.762;2022-08-19T07:44:28;26.60;99.90
19966;DHT22;10144;50.874;4.762;2022-08-19T07:46:56;26.80;99.90
19966;DHT22;10144;50.874;4.762;2022-08-19T07:49:24;27.10;99.90
19966;DHT22;10144;50.874;4.762;2022-08-19T07:51:54;27.60;99.90
19966;DHT22;10144;50.874;4.762;2022-08-19T07:54:23;28.00;99.90
19966;DHT22;10144;50.874;4.762;2022-08-19T07:56:51;27.80;99.90
19966;DHT22;10144;50.874;4.762;2022-08-19T07:59:20;27.60;99.90
19966;DHT22;10144;50.874;4.762;2022-08-19T08:01:48;27.10;99.90
19966;DHT22;10144;50.874;4.762;2022-08-19T08:04:16;27.00;99.90
19966;DHT22;10144;50.874;4.762;2022-08-19T08:07:00;26.90;99.90
19966;DHT22;10144;50.874;4.762;2022-08-19T08:09:45;26.80;99.90
19966;DHT22;10144;50.874;4.762;2022-08-19T08:12:25;27.10;99.90
19966;DHT22;10144;50.874;4.762;2022-08-19T08:14:58;27.50;99.90
19966;DHT22;10144;50.874;4.762;2022-08-19T08:17:29;28.10;99.90
19966;DHT22;10144;50.874;4.762;2022-08-19T08:19:57;28.40;99.90
19966;DHT22;10144;50.874;4.762;2022-08-19T08:22:23;28.70;99.90
19966;DHT22;10144;50.874;4.762;2022-08-19T08:25:17;28.90;99.90
19966;DHT22;10144;50.874;4.762;2022-08-19T08:27:46;28.50;99.90
19966;DHT22;10144;50.874;4.762;2022-08-19T08:30:21;28.00;99.90
19966;DHT22;10144;50.874;4.762;2022-08-19T08:32:49;27.60;99.90
19966;DHT22;10144;50.874;4.762;2022-08-19T08:35:18;27.20;99.90
19966;DHT22;10144;50.874;4.762;2022-08-19T08:37:52;27.20;99.90
19966;DHT22;10144;50.874;4.762;2022-08-19T08:40:23;27.10;99.90
19966;DHT22;10144;50.874;4.762;2022-08-19T08:43:30;27.00;99.90
19966;DHT22;10144;50.874;4.762;2022-08-19T08:46:15;27.10;99.90
19966;DHT22;10144;50.874;4.762;2022-08-19T08:49:02;27.00;99.90
19966;DHT22;10144;50.874;4.762;2022-08-19T08:51:43;26.80;99.90
19966;DHT22;10144;50.874;4.762;2022-08-19T08:54:12;27.30;99.90
19966;DHT22;10144;50.874;4.762;2022-08-19T08:56:42;27.30;99.90
19966;DHT22;10144;50.874;4.762;2022-08-19T08:59:26;27.30;99.90
19966;DHT22;10144;50.874;4.762;2022-08-19T09:01:59;27.20;99.90
19966;DHT22;10144;50.874;4.762;2022-08-19T09:04:32;27.00;99.90
19966;DHT22;10144;50.874;4.762;2022-08-19T09:10:22;26.60;99.90
19966;DHT22;10144;50.874;4.762;2022-08-19T09:15:47;26.60;99.90
19966;DHT22;10144;50.874;4.762;2022-08-19T09:18:16;27.20;99.90
19966;DHT22;10144;50.874;4.762;2022-08-19T09:20:43;27.60;99.90
19966;DHT22;10144;50.874;4.762;2022-08-19T09:23:15;28.00;99.90
19966;DHT22;10144;50.874;4.762;2022-08-19T09:25:44;27.90;99.90
19966;DHT22;10144;50.874;4.762;2022-08-19T09:28:10;27.80;99.90
19966;DHT22;10144;50.874;4.762;2022-08-19T09:30:42;27.60;99.90
19966;DHT22;10144;50.874;4.762;2022-08-19T09:33:11;27.40;99.90
19966;DHT22;10144;50.874;4.762;2022-08-19T09:35:40;27.40;99.90
19966;DHT22;10144;50.874;4.762;2022-08-19T09:38:11;27.20;99.90
19966;DHT22;10144;50.874;4.762;2022-08-19T09:40:40;26.90;99.90
19966;DHT22;10144;50.874;4.762;2022-08-19T09:43:07;27.10;99.90
19966;DHT22;10144;50.874;4.762;2022-08-19T09:45:33;27.00;99.90
19966;DHT22;10144;50.874;4.762;2022-08-19T09:47:58;27.00;99.90
19966;DHT22;10144;50.874;4.762;2022-08-19T09:50:24;27.00;99.90
19966;DHT22;10144;50.874;4.762;2022-08-19T09:52:52;27.10;99.90
19966;DHT22;10144;50.874;4.762;2022-08-19T09:55:34;27.10;99.90
19966;DHT22;10144;50.874;4.762;2022-08-19T09:58:04;27.30;99.90
19966;DHT22;10144;50.874;4.762;2022-08-19T10:00:33;27.20;99.90
19966;DHT22;10144;50.874;4.762;2022-08-19T10:03:00;26.80;99.90
19966;DHT22;10144;50.874;4.762;2022-08-19T10:05:26;26.70;99.90
19966;DHT22;10144;50.874;4.762;2022-08-19T10:08:15;26.80;99.90
19966;DHT22;10144;50.874;4.762;2022-08-19T10:10:44;26.80;99.90
19966;DHT22;10144;50.874;4.762;2022-08-19T10:13:15;26.80;99.90
19966;DHT22;10144;50.874;4.762;2022-08-19T10:15:44;26.70;99.90
19966;DHT22;10144;50.874;4.762;2022-08-19T10:18:11;26.50;99.90
19966;DHT22;10144;50.874;4.762;2022-08-19T10:20:38;26.20;99.90
19966;DHT22;10144;50.874;4.762;2022-08-19T10:23:06;26.20;99.90
19966;DHT22;10144;50.874;4.762;2022-08-19T10:25:34;26.20;99.90
19966;DHT22;10144;50.874;4.762;2022-08-19T10:28:05;26.20;99.90
19966;DHT22;10144;50.874;4.762;2022-08-19T10:30:33;26.20;99.90
19966;DHT22;10144;50.874;4.762;2022-08-19T10:33:05;26.30;99.90
19966;DHT22;10144;50.874;4.762;2022-08-19T10:35:34;26.40;99.90
19966;DHT22;10144;50.874;4.762;2022-08-19T10:38:00;26.50;99.90
19966;DHT22;10144;50.874;4.762;2022-08-19T10:40:32;26.60;99.90
19966;DHT22;10144;50.874;4.762;2022-08-19T10:43:01;26.60;99.90
19966;DHT22;10144;50.874;4.762;2022-08-19T10:45:27;26.60;99.90
19966;DHT22;10144;50.874;4.762;2022-08-19T10:47:53;26.60;99.90
19966;DHT22;10144;50.874;4.762;2022-08-19T10:50:36;26.60;99.90
19966;DHT22;10144;50.874;4.762;2022-08-19T10:53:23;26.50;99.90
19966;DHT22;10144;50.874;4.762;2022-08-19T10:55:55;26.50;99.90
19966;DHT22;10144;50.874;4.762;2022-08-19T10:58:39;26.60;99.90
19966;DHT22;10144;50.874;4.762;2022-08-19T11:01:09;26.60;99.90
19966;DHT22;10144;50.874;4.762;2022-08-19T11:03:35;26.60;99.90
19966;DHT22;10144;50.874;4.762;2022-08-19T11:06:06;26.50;99.90
19966;DHT22;10144;50.874;4.762;2022-08-19T11:08:34;26.60;99.90
19966;DHT22;10144;50.874;4.762;2022-08-19T11:11:03;26.70;99.90
19966;DHT22;10144;50.874;4.762;2022-08-19T11:13:32;26.70;99.90
19966;DHT22;10144;50.874;4.762;2022-08-19T11:16:06;26.60;99.90
19966;DHT22;10144;50.874;4.762;2022-08-19T11:18:39;26.50;99.90
19966;DHT22;10144;50.874;4.762;2022-08-19T11:21:14;26.50;99.90
19966;DHT22;10144;50.874;4.762;2022-08-19T11:23:43;26.40;99.90
19966;DHT22;10144;50.874;4.762;2022-08-19T11:26:10;26.40;99.90
19966;DHT22;10144;50.874;4.762;2022-08-19T11:28:36;26.40;99.90
19966;DHT22;10144;50.874;4.762;2022-08-19T11:31:02;26.40;99.90
19966;DHT22;10144;50.874;4.762;2022-08-19T11:33:30;26.50;99.90
19966;DHT22;10144;50.874;4.762;2022-08-19T11:35:59;26.50;99.90
19966;DHT22;10144;50.874;4.762;2022-08-19T11:38:27;26.40;99.90
19966;DHT22;10144;50.874;4.762;2022-08-19T11:41:00;26.40;99.90
19966;DHT22;10144;50.874;4.762;2022-08-19T11:43:27;26.30;99.90
19966;DHT22;10144;50.874;4.762;2022-08-19T11:45:54;26.20;99.90
19966;DHT22;10144;50.874;4.762;2022-08-19T11:48:21;26.20;99.90
19966;DHT22;10144;50.874;4.762;2022-08-19T11:50:49;26.00;99.90
19966;DHT22;10144;50.874;4.762;2022-08-19T11:53:16;26.00;99.90
19966;DHT22;10144;50.874;4.762;2022-08-19T11:55:44;26.00;99.90
19966;DHT22;10144;50.874;4.762;2022-08-19T11:58:13;26.00;99.90
19966;DHT22;10144;50.874;4.762;2022-08-19T12:00:41;25.90;99.90
19966;DHT22;10144;50.874;4.762;2022-08-19T12:03:08;25.70;99.90
19966;DHT22;10144;50.874;4.762;2022-08-19T12:05:37;25.60;99.90
19966;DHT22;10144;50.874;4.762;2022-08-19T12:08:06;25.70;99.90
19966;DHT22;10144;50.874;4.762;2022-08-19T12:10:33;25.60;99.90
19966;DHT22;10144;50.874;4.762;2022-08-19T12:12:59;25.70;99.90
19966;DHT22;10144;50.874;4.762;2022-08-19T12:15:26;25.70;99.90
19966;DHT22;10144;50.874;4.762;2022-08-19T12:17:57;25.70;99.90
19966;DHT22;10144;50.874;4.762;2022-08-19T12:20:40;25.70;99.90
19966;DHT22;10144;50.874;4.762;2022-08-19T12:23:09;25.60;99.90
19966;DHT22;10144;50.874;4.762;2022-08-19T12:25:36;25.60;99.90
19966;DHT22;10144;50.874;4.762;2022-08-19T12:28:03;25.40;99.90
19966;DHT22;10144;50.874;4.762;2022-08-19T12:30:29;25.30;99.90
19966;DHT22;10144;50.874;4.762;2022-08-19T12:32:56;25.30;99.90
19966;DHT22;10144;50.874;4.762;2022-08-19T12:35:21;25.20;99.90
19966;DHT22;10144;50.874;4.762;2022-08-19T12:37:48;25.10;99.90
19966;DHT22;10144;50.874;4.762;2022-08-19T12:40:15;25.20;99.90
19966;DHT22;10144;50.874;4.762;2022-08-19T12:42:43;25.20;99.90
19966;DHT22;10144;50.874;4.762;2022-08-19T12:45:14;25.30;99.90
19966;DHT22;10144;50.874;4.762;2022-08-19T12:47:42;25.40;99.90
19966;DHT22;10144;50.874;4.762;2022-08-19T12:50:11;25.60;99.90
19966;DHT22;10144;50.874;4.762;2022-08-19T12:52:41;25.70;99.90
19966;DHT22;10144;50.874;4.762;2022-08-19T12:55:08;25.90;99.90
19966;DHT22;10144;50.874;4.762;2022-08-19T12:57:36;26.10;99.90
19966;DHT22;10144;50.874;4.762;2022-08-19T13:00:11;26.20;99.90
19966;DHT22;10144;50.874;4.762;2022-08-19T13:02:39;26.20;99.90
19966;DHT22;10144;50.874;4.762;2022-08-19T13:05:08;26.20;99.90
19966;DHT22;10144;50.874;4.762;2022-08-19T13:07:34;26.40;99.90
19966;DHT22;10144;50.874;4.762;2022-08-19T13:10:00;26.60;99.90
19966;DHT22;10144;50.874;4.762;2022-08-19T13:12:26;26.90;99.90
19966;DHT22;10144;50.874;4.762;2022-08-19T13:14:53;27.10;99.90
19966;DHT22;10144;50.874;4.762;2022-08-19T13:17:20;27.20;99.90
19966;DHT22;10144;50.874;4.762;2022-08-19T13:19:45;27.20;99.90
19966;DHT22;10144;50.874;4.762;2022-08-19T13:22:11;27.30;99.90
19966;DHT22;10144;50.874;4.762;2022-08-19T13:24:37;27.30;99.90
19966;DHT22;10144;50.874;4.762;2022-08-19T13:27:04;27.30;99.90
19966;DHT22;10144;50.874;4.762;2022-08-19T13:29:30;27.30;99.90
19966;DHT22;10144;50.874;4.762;2022-08-19T13:32:14;27.40;99.90
19966;DHT22;10144;50.874;4.762;2022-08-19T13:34:59;27.50;99.90
19966;DHT22;10144;50.874;4.762;2022-08-19T13:37:25;27.70;99.90
19966;DHT22;10144;50.874;4.762;2022-08-19T13:40:20;27.70;99.90
19966;DHT22;10144;50.874;4.762;2022-08-19T13:46:11;27.70;99.90
19966;DHT22;10144;50.874;4.762;2022-08-19T13:52:04;27.50;99.90
19966;DHT22;10144;50.874;4.762;2022-08-19T13:54:29;27.50;99.90
19966;DHT22;10144;50.874;4.762;2022-08-19T13:56:55;27.50;99.90
19966;DHT22;10144;50.874;4.762;2022-08-19T13:59:23;27.60;99.90
19966;DHT22;10144;50.874;4.762;2022-08-19T14:01:49;27.80;99.90
19966;DHT22;10144;50.874;4.762;2022-08-19T14:04:15;27.90;99.90
19966;DHT22;10144;50.874;4.762;2022-08-19T14:06:41;27.80;99.90
19966;DHT22;10144;50.874;4.762;2022-08-19T14:09:06;27.70;99.90
19966;DHT22;10144;50.874;4.762;2022-08-19T14:11:32;27.60;99.90
19966;DHT22;10144;50.874;4.762;2022-08-19T14:13:58;27.70;99.90
19966;DHT22;10144;50.874;4.762;2022-08-19T14:16:24;27.80;99.90
19966;DHT22;10144;50.874;4.762;2022-08-19T14:18:50;27.80;99.90
19966;DHT22;10144;50.874;4.762;2022-08-19T14:21:19;27.80;99.90
19966;DHT22;10144;50.874;4.762;2022-08-19T14:23:45;27.80;99.90
19966;DHT22;10144;50.874;4.762;2022-08-19T14:26:15;27.90;99.90
19966;DHT22;10144;50.874;4.762;2022-08-19T14:28:42;28.00;99.90
19966;DHT22;10144;50.874;4.762;2022-08-19T14:31:12;27.90;99.90
19966;DHT22;10144;50.874;4.762;2022-08-19T14:33:38;27.80;99.90
19966;DHT22;10144;50.874;4.762;2022-08-19T14:36:04;27.60;99.90
19966;DHT22;10144;50.874;4.762;2022-08-19T14:38:30;27.70;99.90
19966;DHT22;10144;50.874;4.762;2022-08-19T14:41:16;27.60;99.90
19966;DHT22;10144;50.874;4.762;2022-08-19T14:43:43;27.60;99.90
19966;DHT22;10144;50.874;4.762;2022-08-19T14:46:13;27.50;99.90
19966;DHT22;10144;50.874;4.762;2022-08-19T14:48:39;27.40;99.90
19966;DHT22;10144;50.874;4.762;2022-08-19T14:51:05;27.40;99.90
19966;DHT22;10144;50.874;4.762;2022-08-19T14:53:32;27.50;99.90
19966;DHT22;10144;50.874;4.762;2022-08-19T14:56:00;27.50;99.90
19966;DHT22;10144;50.874;4.762;2022-08-19T14:58:27;27.50;99.90
19966;DHT22;10144;50.874;4.762;2022-08-19T15:00:53;27.50;99.90
19966;DHT22;10144;50.874;4.762;2022-08-19T15:03:19;27.50;99.90
19966;DHT22;10144;50.874;4.762;2022-08-19T15:05:46;27.50;99.90
19966;DHT22;10144;50.874;4.762;2022-08-19T15:08:21;27.30;99.90
19966;DHT22;10144;50.874;4.762;2022-08-19T15:10:47;27.10;99.90
19966;DHT22;10144;50.874;4.762;2022-08-19T15:13:14;27.00;99.90
19966;DHT22;10144;50.874;4.762;2022-08-19T15:15:39;27.00;99.90
19966;DHT22;10144;50.874;4.762;2022-08-19T15:18:05;26.90;99.90
19966;DHT22;10144;50.874;4.762;2022-08-19T15:20:30;26.90;99.90
19966;DHT22;10144;50.874;4.762;2022-08-19T15:22:56;26.80;99.90
19966;DHT22;10144;50.874;4.762;2022-08-19T15:25:24;26.60;99.90
19966;DHT22;10144;50.874;4.762;2022-08-19T15:27:49;26.50;99.90
19966;DHT22;10144;50.874;4.762;2022-08-19T15:30:23;26.30;99.90
19966;DHT22;10144;50.874;4.762;2022-08-19T15:32:50;26.20;99.90
19966;DHT22;10144;50.874;4.762;2022-08-19T15:35:18;26.20;99.90
19966;DHT22;10144;50.874;4.762;2022-08-19T15:37:47;26.10;99.90
19966;DHT22;10144;50.874;4.762;2022-08-19T15:40:13;26.20;99.90
19966;DHT22;10144;50.874;4.762;2022-08-19T15:42:40;26.10;99.90
19966;DHT22;10144;50.874;4.762;2022-08-19T15:45:08;26.10;99.90
19966;DHT22;10144;50.874;4.762;2022-08-19T15:47:34;26.10;99.90
19966;DHT22;10144;50.874;4.762;2022-08-19T15:50:17;26.00;99.90
19966;DHT22;10144;50.874;4.762;2022-08-19T15:55:12;25.80;99.90
19966;DHT22;10144;50.874;4.762;2022-08-19T15:57:37;25.60;99.90
19966;DHT22;10144;50.874;4.762;2022-08-19T16:00:21;25.50;99.90
19966;DHT22;10144;50.874;4.762;2022-08-19T16:03:05;25.40;99.90
19966;DHT22;10144;50.874;4.762;2022-08-19T16:05:49;25.30;99.90
19966;DHT22;10144;50.874;4.762;2022-08-19T16:08:33;25.40;99.90
19966;DHT22;10144;50.874;4.762;2022-08-19T16:10:59;25.50;99.90
19966;DHT22;10144;50.874;4.762;2022-08-19T16:13:25;25.50;99.90
19966;DHT22;10144;50.874;4.762;2022-08-19T16:15:50;25.60;99.90
19966;DHT22;10144;50.874;4.762;2022-08-19T16:18:22;25.70;99.90
19966;DHT22;10144;50.874;4.762;2022-08-19T16:20:49;25.70;99.90
19966;DHT22;10144;50.874;4.762;2022-08-19T16:23:15;25.60;99.90
19966;DHT22;10144;50.874;4.762;2022-08-19T16:25:42;25.60;99.90
19966;DHT22;10144;50.874;4.762;2022-08-19T16:28:08;25.50;99.90
19966;DHT22;10144;50.874;4.762;2022-08-19T16:30:35;25.50;99.90
19966;DHT22;10144;50.874;4.762;2022-08-19T16:33:01;25.50;99.90
19966;DHT22;10144;50.874;4.762;2022-08-19T16:35:27;25.50;99.90
19966;DHT22;10144;50.874;4.762;2022-08-19T16:37:52;25.40;99.90
19966;DHT22;10144;50.874;4.762;2022-08-19T16:40:18;25.40;99.90
19966;DHT22;10144;50.874;4.762;2022-08-19T16:42:44;25.30;99.90
19966;DHT22;10144;50.874;4.762;2022-08-19T16:45:09;25.20;99.90
19966;DHT22;10144;50.874;4.762;2022-08-19T16:47:35;25.20;99.90
19966;DHT22;10144;50.874;4.762;2022-08-19T16:50:01;25.20;99.90
19966;DHT22;10144;50.874;4.762;2022-08-19T16:52:27;25.10;99.90
19966;DHT22;10144;50.874;4.762;2022-08-19T16:54:53;25.10;99.90
19966;DHT22;10144;50.874;4.762;2022-08-19T16:57:21;25.10;99.90
19966;DHT22;10144;50.874;4.762;2022-08-19T16:59:48;25.10;99.90
19966;DHT22;10144;50.874;4.762;2022-08-19T17:02:20;25.10;99.90
19966;DHT22;10144;50.874;4.762;2022-08-19T17:04:48;25.10;99.90
19966;DHT22;10144;50.874;4.762;2022-08-19T17:07:16;25.10;99.90
19966;DHT22;10144;50.874;4.762;2022-08-19T17:09:42;25.10;99.90
19966;DHT22;10144;50.874;4.762;2022-08-19T17:12:08;25.20;99.90
19966;DHT22;10144;50.874;4.762;2022-08-19T17:14:33;25.10;99.90
19966;DHT22;10144;50.874;4.762;2022-08-19T17:16:59;25.10;99.90
19966;DHT22;10144;50.874;4.762;2022-08-19T17:19:27;25.00;99.90
19966;DHT22;10144;50.874;4.762;2022-08-19T17:21:53;24.90;99.90
19966;DHT22;10144;50.874;4.762;2022-08-19T17:24:18;24.90;99.90
19966;DHT22;10144;50.874;4.762;2022-08-19T17:26:44;24.90;99.90
19966;DHT22;10144;50.874;4.762;2022-08-19T17:29:11;24.80;99.90
19966;DHT22;10144;50.874;4.762;2022-08-19T17:31:37;24.70;99.90
19966;DHT22;10144;50.874;4.762;2022-08-19T17:34:02;24.70;99.90
19966;DHT22;10144;50.874;4.762;2022-08-19T17:36:31;24.70;99.90
19966;DHT22;10144;50.874;4.762;2022-08-19T17:38:58;24.70;99.90
19966;DHT22;10144;50.874;4.762;2022-08-19T17:41:27;24.60;99.90
19966;DHT22;10144;50.874;4.762;2022-08-19T17:43:53;24.60;99.90
19966;DHT22;10144;50.874;4.762;2022-08-19T17:46:19;24.60;99.90
19966;DHT22;10144;50.874;4.762;2022-08-19T17:48:47;24.50;99.90
19966;DHT22;10144;50.874;4.762;2022-08-19T17:53:44;24.60;99.90
19966;DHT22;10144;50.874;4.762;2022-08-19T17:56:13;24.50;99.90
19966;DHT22;10144;50.874;4.762;2022-08-19T17:58:44;24.60;99.90
19966;DHT22;10144;50.874;4.762;2022-08-19T18:01:15;24.40;99.90
19966;DHT22;10144;50.874;4.762;2022-08-19T18:03:46;24.40;99.90
19966;DHT22;10144;50.874;4.762;2022-08-19T18:06:15;24.30;99.90
19966;DHT22;10144;50.874;4.762;2022-08-19T18:08:46;24.20;99.90
19966;DHT22;10144;50.874;4.762;2022-08-19T18:11:21;24.10;99.90
19966;DHT22;10144;50.874;4.762;2022-08-19T18:14:16;24.10;99.90
19966;DHT22;10144;50.874;4.762;2022-08-19T20:12:08;21.70;99.90
19966;DHT22;10144;50.874;4.762;2022-08-19T20:21:30;21.80;99.90
19966;DHT22;10144;50.874;4.762;2022-08-19T20:43:52;21.60;99.90
19966;DHT22;10144;50.874;4.762;2022-08-19T20:49:40;21.50;99.90